sensor_id;sensor_type;location;lat;lon;timestamp;pressure;altitude;pressure_sealevel;temperature
66113;BMP280;52893;52.870;5.822;2023-12-22T00:00:06;99714.34;;;8.02
66113;BMP280;52893;52.870;5.822;2023-12-22T00:02:34;99730.88;;;8.18
66113;BMP280;52893;52.870;5.822;2023-12-22T00:05:03;99744.47;;;8.18
66113;BMP280;52893;52.870;5.822;2023-12-22T00:07:31;99734.25;;;8.15
66113;BMP280;52893;52.870;5.822;2023-12-22T00:09:59;99717.47;;;8.13
66113;BMP280;52893;52.870;5.822;2023-12-22T00:12:26;99714.97;;;8.08
66113;BMP280;52893;52.870;5.822;2023-12-22T00:14:54;99674.97;;;7.76
66113;BMP280;52893;52.870;5.822;2023-12-22T00:17:21;99734.19;;;8.03
66113;BMP280;52893;52.870;5.822;2023-12-22T00:19:49;99719.34;;;8.00
66113;BMP280;52893;52.870;5.822;2023-12-22T00:22:18;99745.28;;;7.98
66113;BMP280;52893;52.870;5.822;2023-12-22T00:24:45;99743.81;;;8.00
66113;BMP280;52893;52.870;5.822;2023-12-22T00:27:13;99727.81;;;7.99
66113;BMP280;52893;52.870;5.822;2023-12-22T00:29:40;99727.09;;;7.90
66113;BMP280;52893;52.870;5.822;2023-12-22T00:32:07;99749.03;;;8.06
66113;BMP280;52893;52.870;5.822;2023-12-22T00:34:35;99766.34;;;8.01
66113;BMP280;52893;52.870;5.822;2023-12-22T00:37:03;99763.63;;;8.01
66113;BMP280;52893;52.870;5.822;2023-12-22T00:39:33;99770.19;;;8.00
66113;BMP280;52893;52.870;5.822;2023-12-22T00:42:01;99743.53;;;7.93
66113;BMP280;52893;52.870;5.822;2023-12-22T00:44:30;99751.34;;;7.95
66113;BMP280;52893;52.870;5.822;2023-12-22T00:46:57;99767.84;;;7.90
66113;BMP280;52893;52.870;5.822;2023-12-22T00:49:25;99767.00;;;7.98
66113;BMP280;52893;52.870;5.822;2023-12-22T00:51:52;99770.78;;;8.06
66113;BMP280;52893;52.870;5.822;2023-12-22T00:54:19;99756.06;;;8.07
66113;BMP280;52893;52.870;5.822;2023-12-22T00:56:49;99760.63;;;7.94
66113;BMP280;52893;52.870;5.822;2023-12-22T00:59:16;99770.44;;;8.07
66113;BMP280;52893;52.870;5.822;2023-12-22T01:01:43;99763.34;;;7.94
66113;BMP280;52893;52.870;5.822;2023-12-22T01:04:11;99798.59;;;8.02
66113;BMP280;52893;52.870;5.822;2023-12-22T01:06:39;99764.00;;;7.91
66113;BMP280;52893;52.870;5.822;2023-12-22T01:09:07;99754.28;;;7.90
66113;BMP280;52893;52.870;5.822;2023-12-22T01:11:35;99786.53;;;7.91
66113;BMP280;52893;52.870;5.822;2023-12-22T01:14:04;99806.50;;;7.95
66113;BMP280;52893;52.870;5.822;2023-12-22T01:16:32;99794.22;;;7.89
66113;BMP280;52893;52.870;5.822;2023-12-22T01:19:00;99787.84;;;7.85
66113;BMP280;52893;52.870;5.822;2023-12-22T01:21:28;99794.28;;;7.81
66113;BMP280;52893;52.870;5.822;2023-12-22T01:23:55;99796.72;;;7.74
66113;BMP280;52893;52.870;5.822;2023-12-22T01:26:25;99800.09;;;7.71
66113;BMP280;52893;52.870;5.822;2023-12-22T01:28:52;99781.25;;;7.66
66113;BMP280;52893;52.870;5.822;2023-12-22T01:31:22;99789.25;;;7.71
66113;BMP280;52893;52.870;5.822;2023-12-22T01:33:50;99800.25;;;7.66
66113;BMP280;52893;52.870;5.822;2023-12-22T01:36:17;99774.34;;;7.47
66113;BMP280;52893;52.870;5.822;2023-12-22T01:38:44;99822.00;;;7.66
66113;BMP280;52893;52.870;5.822;2023-12-22T01:41:12;99813.41;;;7.64
66113;BMP280;52893;52.870;5.822;2023-12-22T01:43:39;99814.53;;;7.63
66113;BMP280;52893;52.870;5.822;2023-12-22T01:46:07;99816.59;;;7.57
66113;BMP280;52893;52.870;5.822;2023-12-22T01:48:37;99805.16;;;7.51
66113;BMP280;52893;52.870;5.822;2023-12-22T01:51:06;99803.28;;;7.43
66113;BMP280;52893;52.870;5.822;2023-12-22T01:53:34;99817.16;;;7.50
66113;BMP280;52893;52.870;5.822;2023-12-22T01:56:03;99805.06;;;7.39
66113;BMP280;52893;52.870;5.822;2023-12-22T01:58:32;99818.81;;;7.34
66113;BMP280;52893;52.870;5.822;2023-12-22T02:01:11;99812.91;;;7.32
66113;BMP280;52893;52.870;5.822;2023-12-22T02:03:40;99803.03;;;7.19
66113;BMP280;52893;52.870;5.822;2023-12-22T02:06:08;99804.78;;;7.24
66113;BMP280;52893;52.870;5.822;2023-12-22T02:08:36;99807.66;;;6.63
66113;BMP280;52893;52.870;5.822;2023-12-22T02:11:04;99824.88;;;6.33
66113;BMP280;52893;52.870;5.822;2023-12-22T02:13:31;99801.16;;;6.13
66113;BMP280;52893;52.870;5.822;2023-12-22T02:16:04;99806.19;;;6.06
66113;BMP280;52893;52.870;5.822;2023-12-22T02:18:40;99813.72;;;6.00
66113;BMP280;52893;52.870;5.822;2023-12-22T02:21:09;99799.84;;;6.02
66113;BMP280;52893;52.870;5.822;2023-12-22T02:23:38;99808.75;;;6.02
66113;BMP280;52893;52.870;5.822;2023-12-22T02:26:12;99780.88;;;5.84
66113;BMP280;52893;52.870;5.822;2023-12-22T02:28:43;99801.88;;;6.05
66113;BMP280;52893;52.870;5.822;2023-12-22T02:31:16;99804.94;;;6.03
66113;BMP280;52893;52.870;5.822;2023-12-22T02:33:46;99810.50;;;6.07
66113;BMP280;52893;52.870;5.822;2023-12-22T02:36:15;99793.63;;;6.10
66113;BMP280;52893;52.870;5.822;2023-12-22T02:38:46;99800.00;;;6.14
66113;BMP280;52893;52.870;5.822;2023-12-22T02:41:14;99792.22;;;6.21
66113;BMP280;52893;52.870;5.822;2023-12-22T02:43:41;99724.75;;;5.76
66113;BMP280;52893;52.870;5.822;2023-12-22T02:46:13;99842.41;;;6.36
66113;BMP280;52893;52.870;5.822;2023-12-22T02:48:41;99873.50;;;6.29
66113;BMP280;52893;52.870;5.822;2023-12-22T02:51:08;99797.44;;;6.09
66113;BMP280;52893;52.870;5.822;2023-12-22T02:53:35;99794.22;;;5.89
66113;BMP280;52893;52.870;5.822;2023-12-22T02:56:05;99788.00;;;5.80
66113;BMP280;52893;52.870;5.822;2023-12-22T02:58:33;99683.25;;;5.16
66113;BMP280;52893;52.870;5.822;2023-12-22T03:01:01;99765.53;;;5.71
66113;BMP280;52893;52.870;5.822;2023-12-22T03:03:28;99762.50;;;5.64
66113;BMP280;52893;52.870;5.822;2023-12-22T03:05:56;99765.25;;;5.81
66113;BMP280;52893;52.870;5.822;2023-12-22T03:08:23;99758.34;;;5.75
66113;BMP280;52893;52.870;5.822;2023-12-22T03:10:50;99770.50;;;5.95
66113;BMP280;52893;52.870;5.822;2023-12-22T03:13:19;99757.44;;;6.06
66113;BMP280;52893;52.870;5.822;2023-12-22T03:15:47;99761.56;;;5.95
66113;BMP280;52893;52.870;5.822;2023-12-22T03:18:14;99674.09;;;5.51
66113;BMP280;52893;52.870;5.822;2023-12-22T03:20:41;99774.69;;;6.27
66113;BMP280;52893;52.870;5.822;2023-12-22T03:23:09;99747.28;;;6.11
66113;BMP280;52893;52.870;5.822;2023-12-22T03:25:36;99772.59;;;6.50
66113;BMP280;52893;52.870;5.822;2023-12-22T03:28:04;99771.78;;;6.58
66113;BMP280;52893;52.870;5.822;2023-12-22T03:30:33;99791.25;;;6.68
66113;BMP280;52893;52.870;5.822;2023-12-22T03:33:01;99769.22;;;6.61
66113;BMP280;52893;52.870;5.822;2023-12-22T03:35:29;99814.78;;;6.85
66113;BMP280;52893;52.870;5.822;2023-12-22T03:37:56;99827.22;;;6.95
66113;BMP280;52893;52.870;5.822;2023-12-22T03:40:24;99825.94;;;7.01
66113;BMP280;52893;52.870;5.822;2023-12-22T03:42:51;99786.25;;;6.88
66113;BMP280;52893;52.870;5.822;2023-12-22T03:45:18;99816.38;;;7.03
66113;BMP280;52893;52.870;5.822;2023-12-22T03:47:47;99821.59;;;7.08
66113;BMP280;52893;52.870;5.822;2023-12-22T03:50:15;99811.53;;;7.09
66113;BMP280;52893;52.870;5.822;2023-12-22T03:52:42;99825.91;;;7.09
66113;BMP280;52893;52.870;5.822;2023-12-22T03:55:09;99822.28;;;7.05
66113;BMP280;52893;52.870;5.822;2023-12-22T03:57:37;99816.59;;;7.19
66113;BMP280;52893;52.870;5.822;2023-12-22T04:00:05;99823.47;;;7.25
66113;BMP280;52893;52.870;5.822;2023-12-22T04:02:33;99799.06;;;7.25
66113;BMP280;52893;52.870;5.822;2023-12-22T04:05:02;99726.50;;;6.67
66113;BMP280;52893;52.870;5.822;2023-12-22T04:07:30;99827.66;;;7.14
66113;BMP280;52893;52.870;5.822;2023-12-22T04:09:57;99842.47;;;7.25
66113;BMP280;52893;52.870;5.822;2023-12-22T04:12:25;99841.72;;;7.16
66113;BMP280;52893;52.870;5.822;2023-12-22T04:14:53;99848.84;;;7.29
66113;BMP280;52893;52.870;5.822;2023-12-22T04:17:20;99849.97;;;7.28
66113;BMP280;52893;52.870;5.822;2023-12-22T04:19:47;99846.75;;;7.26
66113;BMP280;52893;52.870;5.822;2023-12-22T04:22:16;99793.25;;;6.89
66113;BMP280;52893;52.870;5.822;2023-12-22T04:24:44;99794.84;;;6.90
66113;BMP280;52893;52.870;5.822;2023-12-22T04:27:11;99871.97;;;7.35
66113;BMP280;52893;52.870;5.822;2023-12-22T04:29:39;99877.72;;;7.34
66113;BMP280;52893;52.870;5.822;2023-12-22T04:32:06;99669.84;;;6.02
66113;BMP280;52893;52.870;5.822;2023-12-22T04:34:33;99875.31;;;7.41
66113;BMP280;52893;52.870;5.822;2023-12-22T04:37:01;99876.13;;;7.33
66113;BMP280;52893;52.870;5.822;2023-12-22T04:39:30;99889.78;;;7.45
66113;BMP280;52893;52.870;5.822;2023-12-22T04:41:58;99871.13;;;7.43
66113;BMP280;52893;52.870;5.822;2023-12-22T04:44:25;99880.97;;;7.56
66113;BMP280;52893;52.870;5.822;2023-12-22T04:46:52;99888.00;;;7.57
66113;BMP280;52893;52.870;5.822;2023-12-22T04:49:20;99870.59;;;7.58
66113;BMP280;52893;52.870;5.822;2023-12-22T04:51:47;99881.72;;;7.66
66113;BMP280;52893;52.870;5.822;2023-12-22T04:54:14;99880.47;;;7.72
66113;BMP280;52893;52.870;5.822;2023-12-22T04:56:43;99881.09;;;7.69
66113;BMP280;52893;52.870;5.822;2023-12-22T04:59:11;99882.69;;;7.70
66113;BMP280;52893;52.870;5.822;2023-12-22T05:01:38;99884.63;;;7.69
66113;BMP280;52893;52.870;5.822;2023-12-22T05:04:05;99889.06;;;7.74
66113;BMP280;52893;52.870;5.822;2023-12-22T05:06:33;99896.03;;;7.83
66113;BMP280;52893;52.870;5.822;2023-12-22T05:09:00;99902.41;;;7.87
66113;BMP280;52893;52.870;5.822;2023-12-22T05:11:28;99898.63;;;7.80
66113;BMP280;52893;52.870;5.822;2023-12-22T05:13:57;99898.13;;;7.86
66113;BMP280;52893;52.870;5.822;2023-12-22T05:16:25;99891.75;;;7.82
66113;BMP280;52893;52.870;5.822;2023-12-22T05:18:52;99888.81;;;7.96
66113;BMP280;52893;52.870;5.822;2023-12-22T05:21:21;99909.25;;;7.93
66113;BMP280;52893;52.870;5.822;2023-12-22T05:23:48;99905.94;;;7.88
66113;BMP280;52893;52.870;5.822;2023-12-22T05:26:17;99919.06;;;7.86
66113;BMP280;52893;52.870;5.822;2023-12-22T05:28:44;99917.28;;;7.90
66113;BMP280;52893;52.870;5.822;2023-12-22T05:31:13;99904.63;;;7.94
66113;BMP280;52893;52.870;5.822;2023-12-22T05:33:41;99889.03;;;7.82
66113;BMP280;52893;52.870;5.822;2023-12-22T05:36:08;99907.03;;;7.95
66113;BMP280;52893;52.870;5.822;2023-12-22T05:38:37;99907.03;;;7.95
66113;BMP280;52893;52.870;5.822;2023-12-22T05:41:04;99920.13;;;7.93
66113;BMP280;52893;52.870;5.822;2023-12-22T05:43:32;99873.44;;;7.71
66113;BMP280;52893;52.870;5.822;2023-12-22T05:46:00;99864.81;;;7.69
66113;BMP280;52893;52.870;5.822;2023-12-22T05:48:29;99896.94;;;7.96
66113;BMP280;52893;52.870;5.822;2023-12-22T05:50:56;99900.16;;;7.98
66113;BMP280;52893;52.870;5.822;2023-12-22T05:53:24;99908.75;;;8.00
66113;BMP280;52893;52.870;5.822;2023-12-22T05:55:51;99900.16;;;7.98
66113;BMP280;52893;52.870;5.822;2023-12-22T05:58:19;99917.34;;;8.02
66113;BMP280;52893;52.870;5.822;2023-12-22T06:00:46;99908.88;;;8.03
66113;BMP280;52893;52.870;5.822;2023-12-22T06:03:14;99908.25;;;8.07
66113;BMP280;52893;52.870;5.822;2023-12-22T06:05:43;99897.50;;;8.10
66113;BMP280;52893;52.870;5.822;2023-12-22T06:08:10;99885.22;;;8.04
66113;BMP280;52893;52.870;5.822;2023-12-22T06:10:38;99886.34;;;8.03
66113;BMP280;52893;52.870;5.822;2023-12-22T06:13:06;99886.34;;;8.03
66113;BMP280;52893;52.870;5.822;2023-12-22T06:15:34;99901.06;;;8.02
66113;BMP280;52893;52.870;5.822;2023-12-22T06:18:02;99908.38;;;8.10
66113;BMP280;52893;52.870;5.822;2023-12-22T06:20:29;99853.19;;;7.89
66113;BMP280;52893;52.870;5.822;2023-12-22T06:22:58;99885.41;;;7.99
66113;BMP280;52893;52.870;5.822;2023-12-22T06:25:26;99892.44;;;8.00
66113;BMP280;52893;52.870;5.822;2023-12-22T06:27:53;99904.91;;;8.01
66113;BMP280;52893;52.870;5.822;2023-12-22T06:30:20;99894.38;;;7.99
66113;BMP280;52893;52.870;5.822;2023-12-22T06:32:48;99887.34;;;7.98
66113;BMP280;52893;52.870;5.822;2023-12-22T06:35:15;99874.78;;;7.85
66113;BMP280;52893;52.870;5.822;2023-12-22T06:37:43;99900.97;;;7.90
66113;BMP280;52893;52.870;5.822;2023-12-22T06:40:14;99905.28;;;7.91
66113;BMP280;52893;52.870;5.822;2023-12-22T06:42:41;99879.66;;;7.71
66113;BMP280;52893;52.870;5.822;2023-12-22T06:45:09;99907.53;;;7.89
66113;BMP280;52893;52.870;5.822;2023-12-22T06:47:37;99879.91;;;7.87
66113;BMP280;52893;52.870;5.822;2023-12-22T06:50:05;99910.44;;;7.84
66113;BMP280;52893;52.870;5.822;2023-12-22T06:52:34;99896.41;;;7.82
66113;BMP280;52893;52.870;5.822;2023-12-22T06:55:01;99885.91;;;7.72
66113;BMP280;52893;52.870;5.822;2023-12-22T06:57:31;99904.06;;;7.80
66113;BMP280;52893;52.870;5.822;2023-12-22T06:59:58;99879.03;;;7.66
66113;BMP280;52893;52.870;5.822;2023-12-22T07:02:26;99909.97;;;7.82
66113;BMP280;52893;52.870;5.822;2023-12-22T07:05:05;99903.88;;;7.85
66113;BMP280;52893;52.870;5.822;2023-12-22T07:07:51;99914.25;;;7.83
66113;BMP280;52893;52.870;5.822;2023-12-22T07:10:18;99909.63;;;7.83
66113;BMP280;52893;52.870;5.822;2023-12-22T07:12:47;99872.94;;;7.69
66113;BMP280;52893;52.870;5.822;2023-12-22T07:15:15;99852.50;;;7.71
66113;BMP280;52893;52.870;5.822;2023-12-22T07:17:45;99808.41;;;7.36
66113;BMP280;52893;52.870;5.822;2023-12-22T07:20:13;99838.97;;;7.63
66113;BMP280;52893;52.870;5.822;2023-12-22T07:22:40;99761.31;;;7.03
66113;BMP280;52893;52.870;5.822;2023-12-22T07:25:08;99858.44;;;7.56
66113;BMP280;52893;52.870;5.822;2023-12-22T07:27:36;99870.91;;;7.57
66113;BMP280;52893;52.870;5.822;2023-12-22T07:30:07;99848.97;;;7.41
66113;BMP280;52893;52.870;5.822;2023-12-22T07:32:37;99877.47;;;7.56
66113;BMP280;52893;52.870;5.822;2023-12-22T07:35:05;99861.75;;;7.41
66113;BMP280;52893;52.870;5.822;2023-12-22T07:37:35;99873.00;;;7.60
66113;BMP280;52893;52.870;5.822;2023-12-22T07:40:03;99879.72;;;7.63
66113;BMP280;52893;52.870;5.822;2023-12-22T07:42:30;99896.00;;;7.63
66113;BMP280;52893;52.870;5.822;2023-12-22T07:44:58;99890.88;;;7.61
66113;BMP280;52893;52.870;5.822;2023-12-22T07:47:31;99794.66;;;7.03
66113;BMP280;52893;52.870;5.822;2023-12-22T07:49:58;99885.66;;;7.47
66113;BMP280;52893;52.870;5.822;2023-12-22T07:52:29;99752.72;;;6.84
66113;BMP280;52893;52.870;5.822;2023-12-22T07:55:01;99853.59;;;7.41
66113;BMP280;52893;52.870;5.822;2023-12-22T07:57:28;99724.88;;;6.57
66113;BMP280;52893;52.870;5.822;2023-12-22T08:00:04;99763.28;;;6.77
66113;BMP280;52893;52.870;5.822;2023-12-22T08:02:42;99630.97;;;5.89
66113;BMP280;52893;52.870;5.822;2023-12-22T08:05:10;99868.47;;;7.35
66113;BMP280;52893;52.870;5.822;2023-12-22T08:07:38;99803.59;;;6.95
66113;BMP280;52893;52.870;5.822;2023-12-22T08:10:12;99844.53;;;7.19
66113;BMP280;52893;52.870;5.822;2023-12-22T08:12:40;99794.00;;;6.98
66113;BMP280;52893;52.870;5.822;2023-12-22T08:15:09;99591.16;;;5.81
66113;BMP280;52893;52.870;5.822;2023-12-22T08:17:47;99644.00;;;6.04
66113;BMP280;52893;52.870;5.822;2023-12-22T08:20:17;99793.22;;;7.06
66113;BMP280;52893;52.870;5.822;2023-12-22T08:25:48;99822.03;;;7.28
66113;BMP280;52893;52.870;5.822;2023-12-22T08:28:18;99683.31;;;6.36
66113;BMP280;52893;52.870;5.822;2023-12-22T08:30:46;99810.22;;;7.24
66113;BMP280;52893;52.870;5.822;2023-12-22T08:33:15;99818.84;;;7.26
66113;BMP280;52893;52.870;5.822;2023-12-22T08:35:46;99566.50;;;5.82
66113;BMP280;52893;52.870;5.822;2023-12-22T08:38:16;99793.78;;;7.20
66113;BMP280;52893;52.870;5.822;2023-12-22T08:40:43;99658.47;;;6.17
66113;BMP280;52893;52.870;5.822;2023-12-22T08:43:12;99735.69;;;6.74
66113;BMP280;52893;52.870;5.822;2023-12-22T08:45:45;99558.22;;;5.70
66113;BMP280;52893;52.870;5.822;2023-12-22T08:48:16;99626.19;;;6.03
66113;BMP280;52893;52.870;5.822;2023-12-22T08:50:45;99775.00;;;6.98
66113;BMP280;52893;52.870;5.822;2023-12-22T08:53:14;99837.50;;;7.27
66113;BMP280;52893;52.870;5.822;2023-12-22T08:55:41;99667.09;;;6.19
66113;BMP280;52893;52.870;5.822;2023-12-22T08:58:09;99802.63;;;7.00
66113;BMP280;52893;52.870;5.822;2023-12-22T09:00:36;99831.13;;;7.23
66113;BMP280;52893;52.870;5.822;2023-12-22T09:03:04;99794.13;;;7.10
66113;BMP280;52893;52.870;5.822;2023-12-22T09:05:33;99806.75;;;7.14
66113;BMP280;52893;52.870;5.822;2023-12-22T09:08:00;99663.88;;;6.34
66113;BMP280;52893;52.870;5.822;2023-12-22T09:10:28;99799.41;;;7.15
66113;BMP280;52893;52.870;5.822;2023-12-22T09:12:55;99810.72;;;7.17
66113;BMP280;52893;52.870;5.822;2023-12-22T09:15:24;99786.84;;;7.02
66113;BMP280;52893;52.870;5.822;2023-12-22T09:17:52;99793.50;;;7.13
66113;BMP280;52893;52.870;5.822;2023-12-22T09:26:09;99571.25;;;5.68
66113;BMP280;52893;52.870;5.822;2023-12-22T09:28:36;99790.50;;;7.06
66113;BMP280;52893;52.870;5.822;2023-12-22T09:31:03;99804.34;;;7.13
66113;BMP280;52893;52.870;5.822;2023-12-22T09:33:31;99797.19;;;7.00
66113;BMP280;52893;52.870;5.822;2023-12-22T09:35:59;99668.53;;;6.08
66113;BMP280;52893;52.870;5.822;2023-12-22T09:38:26;99799.78;;;6.96
66113;BMP280;52893;52.870;5.822;2023-12-22T09:40:55;99762.34;;;6.72
66113;BMP280;52893;52.870;5.822;2023-12-22T09:43:24;99779.06;;;6.83
66113;BMP280;52893;52.870;5.822;2023-12-22T09:45:52;99716.03;;;6.40
66113;BMP280;52893;52.870;5.822;2023-12-22T09:48:21;99804.09;;;6.89
66113;BMP280;52893;52.870;5.822;2023-12-22T09:50:53;99677.78;;;6.15
66113;BMP280;52893;52.870;5.822;2023-12-22T09:53:21;99787.22;;;6.74
66113;BMP280;52893;52.870;5.822;2023-12-22T09:55:49;99791.66;;;6.88
66113;BMP280;52893;52.870;5.822;2023-12-22T09:58:17;99791.00;;;6.91
66113;BMP280;52893;52.870;5.822;2023-12-22T10:00:47;99775.69;;;6.95
66113;BMP280;52893;52.870;5.822;2023-12-22T10:03:16;99770.38;;;6.98
66113;BMP280;52893;52.870;5.822;2023-12-22T10:05:43;99781.25;;;6.98
66113;BMP280;52893;52.870;5.822;2023-12-22T10:08:11;99686.38;;;6.26
66113;BMP280;52893;52.870;5.822;2023-12-22T10:10:40;99591.66;;;5.74
66113;BMP280;52893;52.870;5.822;2023-12-22T10:13:10;99663.72;;;6.30
66113;BMP280;52893;52.870;5.822;2023-12-22T10:15:39;99713.03;;;6.70
66113;BMP280;52893;52.870;5.822;2023-12-22T10:18:10;99549.59;;;5.85
66113;BMP280;52893;52.870;5.822;2023-12-22T10:20:38;99655.53;;;6.56
66113;BMP280;52893;52.870;5.822;2023-12-22T10:23:07;99759.91;;;7.26
66113;BMP280;52893;52.870;5.822;2023-12-22T10:25:34;99783.34;;;7.31
66113;BMP280;52893;52.870;5.822;2023-12-22T10:28:02;99792.78;;;7.33
66113;BMP280;52893;52.870;5.822;2023-12-22T10:30:29;99751.81;;;7.17
66113;BMP280;52893;52.870;5.822;2023-12-22T10:32:58;99767.06;;;7.39
66113;BMP280;52893;52.870;5.822;2023-12-22T10:35:28;99765.44;;;7.38
66113;BMP280;52893;52.870;5.822;2023-12-22T10:37:56;99754.47;;;7.35
66113;BMP280;52893;52.870;5.822;2023-12-22T10:40:23;99726.84;;;7.33
66113;BMP280;52893;52.870;5.822;2023-12-22T10:42:52;99732.50;;;7.48
66113;BMP280;52893;52.870;5.822;2023-12-22T10:45:21;99734.97;;;7.41
66113;BMP280;52893;52.870;5.822;2023-12-22T10:47:49;99750.06;;;7.51
66113;BMP280;52893;52.870;5.822;2023-12-22T10:50:19;99682.56;;;7.11
66113;BMP280;52893;52.870;5.822;2023-12-22T10:53:00;99744.63;;;7.51
66113;BMP280;52893;52.870;5.822;2023-12-22T10:55:28;99740.38;;;7.41
66113;BMP280;52893;52.870;5.822;2023-12-22T10:58:01;99750.88;;;7.51
66113;BMP280;52893;52.870;5.822;2023-12-22T11:00:30;99728.72;;;7.41
66113;BMP280;52893;52.870;5.822;2023-12-22T11:03:01;99748.41;;;7.58
66113;BMP280;52893;52.870;5.822;2023-12-22T11:05:33;99735.00;;;7.62
66113;BMP280;52893;52.870;5.822;2023-12-22T11:08:03;99694.66;;;7.23
66113;BMP280;52893;52.870;5.822;2023-12-22T11:10:33;99704.63;;;7.39
66113;BMP280;52893;52.870;5.822;2023-12-22T11:13:03;99471.44;;;6.13
66113;BMP280;52893;52.870;5.822;2023-12-22T11:15:33;99634.91;;;7.02
66113;BMP280;52893;52.870;5.822;2023-12-22T11:18:04;99730.94;;;7.68
66113;BMP280;52893;52.870;5.822;2023-12-22T11:20:33;99736.84;;;7.70
66113;BMP280;52893;52.870;5.822;2023-12-22T11:23:04;99698.25;;;7.56
66113;BMP280;52893;52.870;5.822;2023-12-22T11:25:36;99736.56;;;7.84
66113;BMP280;52893;52.870;5.822;2023-12-22T11:28:06;99703.28;;;7.66
66113;BMP280;52893;52.870;5.822;2023-12-22T11:30:36;99731.13;;;7.84
66113;BMP280;52893;52.870;5.822;2023-12-22T11:33:06;99676.53;;;7.56
66113;BMP280;52893;52.870;5.822;2023-12-22T11:35:50;99733.66;;;7.89
66113;BMP280;52893;52.870;5.822;2023-12-22T11:38:28;99699.63;;;7.71
66113;BMP280;52893;52.870;5.822;2023-12-22T11:41:05;99729.03;;;7.89
66113;BMP280;52893;52.870;5.822;2023-12-22T11:43:34;99718.69;;;7.83
66113;BMP280;52893;52.870;5.822;2023-12-22T11:46:02;99732.34;;;7.95
66113;BMP280;52893;52.870;5.822;2023-12-22T11:48:30;99757.25;;;7.97
66113;BMP280;52893;52.870;5.822;2023-12-22T11:50:58;99749.69;;;8.02
66113;BMP280;52893;52.870;5.822;2023-12-22T11:53:30;99759.09;;;8.05
66113;BMP280;52893;52.870;5.822;2023-12-22T11:55:59;99756.72;;;8.03
66113;BMP280;52893;52.870;5.822;2023-12-22T11:58:37;99737.78;;;7.95
66113;BMP280;52893;52.870;5.822;2023-12-22T12:01:07;99722.13;;;7.92
66113;BMP280;52893;52.870;5.822;2023-12-22T12:03:41;99728.16;;;7.97
66113;BMP280;52893;52.870;5.822;2023-12-22T12:06:16;99733.78;;;8.13
66113;BMP280;52893;52.870;5.822;2023-12-22T12:08:46;99741.75;;;8.18
66113;BMP280;52893;52.870;5.822;2023-12-22T12:11:14;99730.56;;;8.11
66113;BMP280;52893;52.870;5.822;2023-12-22T12:13:44;99742.63;;;8.22
66113;BMP280;52893;52.870;5.822;2023-12-22T12:16:12;99703.03;;;8.00
66113;BMP280;52893;52.870;5.822;2023-12-22T12:18:41;99725.13;;;8.11
66113;BMP280;52893;52.870;5.822;2023-12-22T12:21:09;99735.44;;;8.26
66113;BMP280;52893;52.870;5.822;2023-12-22T12:23:37;99721.50;;;8.28
66113;BMP280;52893;52.870;5.822;2023-12-22T12:26:07;99668.84;;;7.99
66113;BMP280;52893;52.870;5.822;2023-12-22T12:28:35;99715.03;;;8.32
66113;BMP280;52893;52.870;5.822;2023-12-22T12:31:05;99711.19;;;8.33
66113;BMP280;52893;52.870;5.822;2023-12-22T12:33:35;99715.50;;;8.34
66113;BMP280;52893;52.870;5.822;2023-12-22T12:36:05;99703.94;;;8.25
66113;BMP280;52893;52.870;5.822;2023-12-22T12:38:48;99734.88;;;8.33
66113;BMP280;52893;52.870;5.822;2023-12-22T12:41:29;99710.97;;;8.26
66113;BMP280;52893;52.870;5.822;2023-12-22T12:43:58;99728.88;;;8.27
66113;BMP280;52893;52.870;5.822;2023-12-22T12:46:32;99722.31;;;8.28
66113;BMP280;52893;52.870;5.822;2023-12-22T12:49:04;99716.41;;;8.26
66113;BMP280;52893;52.870;5.822;2023-12-22T12:51:35;99700.97;;;8.18
66113;BMP280;52893;52.870;5.822;2023-12-22T12:54:04;99679.25;;;8.18
66113;BMP280;52893;52.870;5.822;2023-12-22T12:56:38;99561.31;;;7.45
66113;BMP280;52893;52.870;5.822;2023-12-22T12:59:07;99613.22;;;7.85
66113;BMP280;52893;52.870;5.822;2023-12-22T13:01:39;99651.44;;;8.13
66113;BMP280;52893;52.870;5.822;2023-12-22T13:04:08;99658.34;;;8.10
66113;BMP280;52893;52.870;5.822;2023-12-22T13:06:35;99663.91;;;8.14
66113;BMP280;52893;52.870;5.822;2023-12-22T13:09:09;99637.94;;;8.04
66113;BMP280;52893;52.870;5.822;2023-12-22T13:11:39;99654.84;;;8.10
66113;BMP280;52893;52.870;5.822;2023-12-22T13:14:08;99534.88;;;7.42
66113;BMP280;52893;52.870;5.822;2023-12-22T13:16:37;99630.81;;;7.99
66113;BMP280;52893;52.870;5.822;2023-12-22T13:19:05;99637.28;;;8.07
66113;BMP280;52893;52.870;5.822;2023-12-22T13:21:33;99458.81;;;6.97
66113;BMP280;52893;52.870;5.822;2023-12-22T13:24:11;99627.31;;;8.11
66113;BMP280;52893;52.870;5.822;2023-12-22T13:26:41;99618.00;;;8.00
66113;BMP280;52893;52.870;5.822;2023-12-22T13:29:10;99636.97;;;8.09
66113;BMP280;52893;52.870;5.822;2023-12-22T13:31:39;99641.38;;;8.13
66113;BMP280;52893;52.870;5.822;2023-12-22T13:34:10;99650.00;;;8.15
66113;BMP280;52893;52.870;5.822;2023-12-22T13:36:38;99642.63;;;8.16
66113;BMP280;52893;52.870;5.822;2023-12-22T13:39:06;99658.63;;;8.17
66113;BMP280;52893;52.870;5.822;2023-12-22T13:41:34;99617.44;;;7.94
66113;BMP280;52893;52.870;5.822;2023-12-22T13:44:06;99680.03;;;8.19
66113;BMP280;52893;52.870;5.822;2023-12-22T13:46:34;99664.50;;;8.19
66113;BMP280;52893;52.870;5.822;2023-12-22T13:49:01;99629.22;;;7.98
66113;BMP280;52893;52.870;5.822;2023-12-22T13:51:38;99635.03;;;8.09
66113;BMP280;52893;52.870;5.822;2023-12-22T13:54:06;99660.63;;;8.08
66113;BMP280;52893;52.870;5.822;2023-12-22T13:56:33;99643.38;;;8.04
66113;BMP280;52893;52.870;5.822;2023-12-22T13:59:03;99638.63;;;8.01
66113;BMP280;52893;52.870;5.822;2023-12-22T14:01:32;99642.88;;;7.90
66113;BMP280;52893;52.870;5.822;2023-12-22T14:03:59;99639.72;;;7.67
66113;BMP280;52893;52.870;5.822;2023-12-22T14:06:27;99652.19;;;7.68
66113;BMP280;52893;52.870;5.822;2023-12-22T14:08:55;99652.06;;;7.65
66113;BMP280;52893;52.870;5.822;2023-12-22T14:11:23;99668.34;;;7.65
66113;BMP280;52893;52.870;5.822;2023-12-22T14:13:50;99681.47;;;7.63
66113;BMP280;52893;52.870;5.822;2023-12-22T14:16:18;99703.19;;;7.63
66113;BMP280;52893;52.870;5.822;2023-12-22T14:18:47;99719.19;;;7.55
66113;BMP280;52893;52.870;5.822;2023-12-22T14:21:14;99707.75;;;7.50
66113;BMP280;52893;52.870;5.822;2023-12-22T14:23:42;99713.81;;;7.47
66113;BMP280;52893;52.870;5.822;2023-12-22T14:26:10;99684.75;;;7.47
66113;BMP280;52893;52.870;5.822;2023-12-22T14:28:39;99666.34;;;7.32
66113;BMP280;52893;52.870;5.822;2023-12-22T14:31:07;99595.44;;;6.84
66113;BMP280;52893;52.870;5.822;2023-12-22T14:33:35;99698.31;;;7.47
66113;BMP280;52893;52.870;5.822;2023-12-22T14:36:04;99697.22;;;7.48
66113;BMP280;52893;52.870;5.822;2023-12-22T14:38:32;99715.56;;;7.51